createdAt,value
2018-09-28T00:00:47.348Z,53.97
2018-09-28T00:03:19.667Z,59.80
2018-09-28T00:05:51.601Z,55.00
2018-09-28T00:08:23.833Z,72.80
2018-09-28T00:10:57.457Z,67.27
2018-09-28T00:13:30.208Z,41.97
2018-09-28T00:16:02.303Z,38.63
2018-09-28T00:18:33.353Z,40.70
2018-09-28T00:21:05.379Z,35.27
2018-09-28T00:23:38.415Z,34.80
2018-09-28T00:26:12.164Z,36.77
2018-09-28T00:28:45.339Z,34.60
2018-09-28T00:31:18.201Z,33.53
2018-09-28T00:33:51.779Z,36.13
2018-09-28T00:36:24.342Z,36.37
2018-09-28T00:38:56.893Z,40.07
2018-09-28T00:41:29.744Z,38.93
2018-09-28T00:44:02.033Z,39.27
2018-09-28T00:46:34.324Z,36.43
2018-09-28T00:49:06.503Z,35.93
2018-09-28T00:51:38.833Z,40.43
2018-09-28T00:54:11.099Z,42.63
2018-09-28T00:56:42.947Z,62.73
2018-09-28T00:59:15.292Z,104.00
2018-09-28T01:01:47.227Z,119.83
2018-09-28T01:04:18.494Z,111.83
2018-09-28T01:06:50.610Z,92.27
2018-09-28T01:09:22.789Z,91.00
2018-09-28T01:11:56.229Z,114.47
2018-09-28T01:14:28.409Z,86.13
2018-09-28T01:17:01.598Z,67.77
2018-09-28T01:19:33.923Z,49.40
2018-09-28T01:22:06.617Z,43.80
2018-09-28T01:24:39.051Z,38.67
2018-09-28T01:27:11.891Z,35.10
2018-09-28T01:29:45.158Z,32.97
2018-09-28T01:32:18.498Z,33.60
2018-09-28T01:34:49.609Z,31.97
2018-09-28T01:37:22.112Z,35.20
2018-09-28T01:39:54.220Z,42.83
2018-09-28T01:42:26.587Z,69.73
2018-09-28T01:44:58.921Z,105.80
2018-09-28T01:47:30.467Z,131.00
2018-09-28T01:50:03.467Z,132.43
2018-09-28T01:52:35.966Z,111.87
2018-09-28T01:55:08.901Z,86.90
2018-09-28T01:57:41.991Z,62.67
2018-09-28T02:00:14.330Z,46.93
2018-09-28T02:02:47.151Z,45.33
2018-09-28T02:05:20.576Z,49.73
2018-09-28T02:07:52.861Z,43.07
2018-09-28T02:10:25.032Z,63.67
2018-09-28T02:12:57.472Z,70.30
2018-09-28T02:15:30.734Z,54.63
2018-09-28T02:18:03.339Z,57.37
2018-09-28T02:20:36.044Z,82.03
2018-09-28T02:23:15.409Z,82.13
2018-09-28T02:25:54.198Z,84.27
2018-09-28T02:28:34.369Z,98.43
2018-09-28T02:31:13.771Z,94.07
2018-09-28T02:33:51.769Z,71.83
2018-09-28T02:36:30.865Z,53.47
2018-09-28T02:39:09.301Z,47.77
2018-09-28T02:41:47.065Z,49.50
2018-09-28T02:44:27.382Z,54.50
2018-09-28T02:47:09.469Z,55.70
2018-09-28T02:49:48.140Z,59.70
2018-09-28T02:52:24.888Z,60.43
2018-09-28T02:55:02.509Z,69.73
2018-09-28T02:57:40.642Z,71.07
2018-09-28T03:00:19.489Z,66.43
2018-09-28T03:02:58.005Z,50.73
2018-09-28T03:05:36.962Z,48.93
2018-09-28T03:08:16.247Z,59.80
2018-09-28T03:10:54.907Z,60.63
2018-09-28T03:13:33.530Z,52.97
2018-09-28T03:16:12.192Z,51.63
2018-09-28T03:18:52.348Z,54.27
2018-09-28T03:21:32.004Z,53.53
2018-09-28T03:24:09.782Z,51.97
2018-09-28T03:26:48.314Z,60.77
2018-09-28T03:29:27.548Z,60.70
2018-09-28T03:32:07.634Z,50.80
2018-09-28T03:34:46.210Z,46.23
2018-09-28T03:37:24.058Z,41.60
2018-09-28T03:40:02.506Z,48.97
2018-09-28T03:42:40.212Z,55.87
2018-09-28T03:45:20.067Z,76.93
2018-09-28T03:47:58.986Z,63.47
2018-09-28T03:50:37.687Z,59.97
2018-09-28T03:53:15.030Z,54.53
2018-09-28T03:55:52.970Z,49.83
2018-09-28T03:58:31.644Z,43.03
2018-09-28T04:01:09.729Z,44.33
2018-09-28T04:03:48.382Z,47.93
2018-09-28T04:06:26.988Z,45.60
2018-09-28T04:09:05.359Z,48.27
2018-09-28T04:11:44.023Z,40.23
2018-09-28T04:14:21.845Z,43.87
2018-09-28T04:17:02.885Z,46.47
2018-09-28T04:19:43.205Z,40.27
2018-09-28T04:22:36.782Z,42.67
2018-09-28T04:25:15.509Z,36.17
2018-09-28T04:27:55.820Z,31.23
2018-09-28T04:30:32.569Z,40.77
2018-09-28T04:33:17.858Z,42.03
2018-09-28T04:35:56.989Z,46.93
2018-09-28T04:38:34.725Z,40.80
2018-09-28T04:41:14.706Z,38.73
2018-09-28T04:43:55.684Z,39.10
2018-09-28T04:46:33.702Z,38.27
2018-09-28T04:49:13.506Z,32.33
2018-09-28T04:51:52.767Z,36.00
2018-09-28T04:54:34.700Z,38.93
2018-09-28T04:57:14.747Z,35.17
2018-09-28T04:59:51.045Z,36.17
2018-09-28T05:02:34.226Z,35.60
2018-09-28T05:05:15.681Z,41.40
2018-09-28T05:07:54.369Z,42.03
2018-09-28T05:10:34.447Z,41.07
2018-09-28T05:13:13.765Z,48.83
2018-09-28T05:15:54.789Z,47.40
2018-09-28T05:18:35.950Z,52.97
2018-09-28T05:21:16.924Z,48.27
2018-09-28T05:23:54.650Z,59.23
2018-09-28T05:26:33.924Z,64.63
2018-09-28T05:29:12.442Z,68.70
2018-09-28T05:31:51.021Z,83.33
2018-09-28T05:34:30.082Z,83.87
2018-09-28T05:37:09.210Z,81.70
2018-09-28T05:39:48.524Z,82.83
2018-09-28T05:42:28.066Z,71.93
2018-09-28T05:45:08.284Z,79.57
2018-09-28T05:47:45.251Z,89.27
2018-09-28T05:50:25.523Z,91.47
2018-09-28T05:53:05.847Z,88.63
2018-09-28T05:55:46.065Z,84.03
2018-09-28T05:58:29.031Z,85.83
2018-09-28T06:01:12.584Z,86.77
2018-09-28T06:03:56.407Z,85.90
2018-09-28T06:06:36.007Z,77.77
2018-09-28T06:09:17.347Z,77.30
2018-09-28T06:11:56.422Z,76.57
2018-09-28T06:14:36.863Z,62.67
2018-09-28T06:17:17.717Z,53.83
2018-09-28T06:19:58.051Z,52.80
2018-09-28T06:22:38.127Z,53.80
2018-09-28T06:25:16.546Z,52.67
2018-09-28T06:27:56.686Z,62.07
2018-09-28T06:30:35.744Z,67.73
2018-09-28T06:33:13.021Z,77.50
2018-09-28T06:35:52.695Z,85.33
2018-09-28T06:38:29.125Z,89.13
2018-09-28T06:41:06.368Z,111.67
2018-09-28T06:43:46.986Z,111.57
2018-09-28T06:46:25.884Z,193.93
2018-09-28T06:49:03.981Z,127.53
2018-09-28T06:51:47.389Z,134.43
2018-09-28T06:54:27.046Z,171.43
2018-09-28T06:57:04.908Z,169.30
2018-09-28T06:59:43.658Z,210.13
2018-09-28T07:02:22.700Z,217.20
2018-09-28T07:05:00.164Z,145.20
2018-09-28T07:07:37.804Z,206.77
2018-09-28T07:10:19.760Z,143.63
2018-09-28T07:12:56.526Z,159.77
2018-09-28T07:15:36.368Z,209.23
2018-09-28T07:18:13.454Z,193.23
2018-09-28T07:20:53.505Z,204.70
2018-09-28T07:23:33.561Z,101.83
2018-09-28T07:26:13.023Z,151.70
2018-09-28T07:28:50.221Z,150.40
2018-09-28T07:31:28.629Z,316.87
2018-09-28T07:34:08.725Z,276.27
2018-09-28T07:36:49.541Z,216.87
2018-09-28T07:39:28.306Z,272.40
2018-09-28T07:42:08.215Z,245.93
2018-09-28T07:44:46.825Z,272.07
2018-09-28T07:47:25.400Z,379.40
2018-09-28T07:50:06.047Z,363.67
2018-09-28T07:52:45.001Z,267.93
2018-09-28T07:55:22.369Z,266.30
2018-09-28T07:58:05.396Z,176.47
2018-09-28T08:00:48.921Z,363.17
2018-09-28T08:03:31.942Z,134.77
2018-09-28T08:06:14.849Z,93.17
2018-09-28T08:08:54.545Z,497.10
2018-09-28T08:11:35.628Z,398.93
2018-09-28T08:14:19.106Z,611.70
2018-09-28T08:17:03.506Z,614.40
2018-09-28T08:19:41.424Z,633.67
2018-09-28T08:22:23.240Z,515.03
2018-09-28T08:25:00.829Z,453.43
2018-09-28T08:27:37.403Z,55.57
2018-09-28T08:30:14.307Z,164.43
2018-09-28T08:32:52.729Z,291.53
2018-09-28T08:35:30.444Z,326.67
2018-09-28T08:38:16.545Z,850.03
2018-09-28T08:40:56.120Z,633.03
2018-09-28T08:43:36.148Z,123.50
2018-09-28T08:46:15.164Z,40.33
2018-09-28T08:48:58.222Z,42.40
2018-09-28T08:51:39.827Z,37.10
2018-09-28T08:54:19.026Z,104.57
2018-09-28T08:56:59.384Z,74.00
2018-09-28T08:59:38.263Z,43.33
2018-09-28T09:02:18.084Z,45.07
2018-09-28T09:04:57.083Z,54.13
2018-09-28T09:07:37.523Z,50.17
2018-09-28T09:10:17.215Z,86.90
2018-09-28T09:12:56.456Z,46.27
2018-09-28T09:15:38.042Z,59.20
2018-09-28T09:18:18.240Z,59.73
2018-09-28T09:20:56.044Z,38.37
2018-09-28T09:23:33.843Z,32.10
2018-09-28T09:26:25.130Z,31.93
2018-09-28T09:29:05.348Z,30.07
2018-09-28T09:31:46.751Z,33.63
2018-09-28T09:34:25.725Z,40.03
2018-09-28T09:37:05.901Z,51.20
2018-09-28T09:39:42.869Z,43.67
2018-09-28T09:42:21.227Z,36.43
2018-09-28T09:44:59.945Z,35.30
2018-09-28T09:47:40.147Z,35.30
2018-09-28T09:50:16.982Z,35.37
2018-09-28T09:52:53.628Z,39.23
2018-09-28T09:55:31.520Z,60.70
2018-09-28T09:58:10.537Z,58.37
2018-09-28T10:00:56.408Z,71.17
2018-09-28T10:03:36.799Z,61.30
2018-09-28T10:06:14.298Z,51.17
2018-09-28T10:08:51.046Z,50.87
2018-09-28T10:11:27.625Z,88.27
2018-09-28T10:14:10.147Z,32.57
2018-09-28T10:16:48.799Z,29.80
2018-09-28T10:19:25.080Z,28.37
2018-09-28T10:22:01.686Z,26.93
2018-09-28T10:24:41.510Z,26.87
2018-09-28T10:27:24.224Z,30.20
2018-09-28T10:30:04.328Z,32.17
2018-09-28T10:32:46.028Z,48.37
2018-09-28T10:35:22.903Z,32.93
2018-09-28T10:38:03.085Z,35.33
2018-09-28T10:40:43.161Z,37.93
2018-09-28T10:49:35.431Z,47.50
2018-09-28T10:52:19.912Z,66.60
2018-09-28T10:55:05.228Z,45.60
2018-09-28T10:57:47.841Z,43.87
2018-09-28T11:00:27.819Z,49.93
2018-09-28T11:06:07.907Z,47.67
2018-09-28T11:08:49.150Z,53.43
2018-09-28T11:11:28.506Z,55.60
2018-09-28T11:14:08.269Z,60.30
2018-09-28T11:16:49.864Z,42.33
2018-09-28T11:19:30.908Z,62.23
2018-09-28T11:22:32.993Z,66.50
2018-09-28T11:25:29.951Z,75.10
2018-09-28T11:28:07.378Z,75.33
2018-09-28T11:30:46.768Z,80.27
2018-09-28T11:33:26.003Z,92.47
2018-09-28T11:36:04.514Z,85.53
2018-09-28T11:38:46.987Z,92.10
2018-09-28T11:41:24.572Z,75.10
2018-09-28T11:44:09.888Z,84.83
2018-09-28T11:46:50.933Z,96.73
2018-09-28T11:49:28.789Z,95.93
2018-09-28T11:52:06.354Z,82.57
2018-09-28T11:54:43.552Z,93.10
2018-09-28T11:57:25.084Z,93.73
2018-09-28T12:00:06.851Z,83.83
2018-09-28T12:02:46.645Z,86.50
2018-09-28T12:05:28.105Z,81.20
2018-09-28T12:08:06.428Z,74.53
2018-09-28T12:10:47.577Z,68.23
2018-09-28T12:13:26.213Z,60.77
2018-09-28T12:16:06.952Z,76.53
2018-09-28T12:18:52.745Z,59.60
2018-09-28T12:21:31.650Z,61.40
2018-09-28T12:24:11.758Z,85.07
2018-09-28T12:26:51.987Z,70.10
2018-09-28T12:29:32.069Z,54.07
2018-09-28T12:32:13.311Z,64.63
2018-09-28T12:34:54.652Z,65.33
2018-09-28T12:37:35.333Z,65.03
2018-09-28T12:40:15.489Z,56.50
2018-09-28T12:42:55.390Z,64.70
2018-09-28T12:45:36.930Z,72.37
2018-09-28T12:48:34.993Z,40.63
2018-09-28T12:51:15.649Z,38.53
2018-09-28T12:53:55.269Z,43.93
2018-09-28T12:56:37.952Z,35.60
2018-09-28T12:59:23.668Z,33.67
2018-09-28T13:02:05.280Z,34.60
2018-09-28T13:04:42.709Z,35.23
2018-09-28T13:07:20.371Z,32.27
2018-09-28T13:09:57.326Z,31.83
2018-09-28T13:12:34.614Z,33.53
2018-09-28T13:15:12.631Z,29.93
2018-09-28T13:17:51.432Z,34.50
2018-09-28T13:20:32.053Z,30.73
2018-09-28T13:23:15.748Z,30.17
2018-09-28T13:25:56.487Z,31.23
2018-09-28T13:28:35.770Z,29.70
2018-09-28T13:31:14.408Z,32.03
2018-09-28T13:33:56.010Z,41.70
2018-09-28T13:36:36.643Z,35.60
2018-09-28T13:39:15.905Z,31.33
2018-09-28T13:41:53.751Z,31.33
2018-09-28T13:44:36.021Z,28.87
2018-09-28T13:47:30.888Z,32.03
2018-09-28T13:50:12.709Z,30.43
2018-09-28T13:52:50.138Z,27.60
2018-09-28T13:55:29.547Z,29.53
2018-09-28T13:58:10.920Z,30.07
2018-09-28T14:00:49.699Z,31.27
2018-09-28T14:03:28.555Z,30.40
2018-09-28T14:06:07.108Z,29.40
2018-09-28T14:08:48.032Z,30.87
2018-09-28T14:11:28.833Z,28.43
2018-09-28T14:14:07.621Z,30.37
2018-09-28T14:16:47.063Z,29.80
2018-09-28T14:19:27.684Z,30.90
2018-09-28T14:22:08.644Z,31.20
2018-09-28T14:24:49.087Z,31.10
2018-09-28T14:27:29.650Z,31.13
2018-09-28T14:30:09.876Z,30.30
2018-09-28T14:32:48.715Z,31.00
2018-09-28T14:35:27.168Z,31.43
2018-09-28T14:38:06.510Z,34.13
2018-09-28T14:40:48.477Z,35.03
2018-09-28T14:43:34.351Z,31.70
2018-09-28T14:46:15.634Z,33.80
2018-09-28T14:48:52.919Z,32.77
2018-09-28T14:51:33.385Z,35.30
2018-09-28T14:54:12.176Z,37.47
2018-09-28T14:56:51.352Z,38.97
2018-09-28T14:59:32.709Z,39.77
2018-09-28T15:02:12.729Z,39.27
2018-09-28T15:05:01.130Z,36.60
2018-09-28T15:07:40.698Z,38.63
2018-09-28T15:10:20.300Z,38.23
2018-09-28T15:13:01.090Z,35.60
2018-09-28T15:15:39.468Z,35.60
2018-09-28T15:18:20.562Z,36.40
2018-09-28T15:21:02.052Z,38.67
2018-09-28T15:23:45.127Z,42.50
2018-09-28T15:26:22.988Z,38.47
2018-09-28T15:29:08.512Z,47.57
2018-09-28T15:31:51.386Z,54.90
2018-09-28T15:34:30.248Z,69.20
2018-09-28T15:37:12.791Z,68.17
2018-09-28T15:39:51.569Z,70.30
2018-09-28T15:42:36.568Z,81.83
2018-09-28T15:45:18.108Z,99.37
2018-09-28T15:47:57.807Z,96.60
2018-09-28T15:50:39.212Z,108.97
2018-09-28T15:53:20.710Z,102.63
2018-09-28T15:55:58.225Z,115.73
2018-09-28T15:58:36.408Z,102.03
2018-09-28T16:01:17.008Z,118.10
2018-09-28T16:03:58.474Z,104.43
2018-09-28T16:06:38.225Z,62.07
2018-09-28T16:09:22.951Z,55.93
2018-09-28T16:12:02.596Z,40.30
2018-09-28T16:14:43.606Z,32.67
2018-09-28T16:17:24.787Z,27.17
2018-09-28T16:20:02.989Z,26.73
2018-09-28T16:22:42.372Z,28.20
2018-09-28T16:25:24.153Z,26.80
2018-09-28T16:28:05.887Z,27.67
2018-09-28T16:30:44.749Z,35.77
2018-09-28T16:33:26.408Z,39.17
2018-09-28T16:36:04.717Z,42.63
2018-09-28T16:38:42.531Z,39.93
2018-09-28T16:41:24.266Z,46.93
2018-09-28T16:44:05.847Z,43.50
2018-09-28T16:46:47.989Z,37.50
2018-09-28T16:49:32.215Z,31.63
2018-09-28T16:52:16.860Z,32.50
2018-09-28T16:54:57.891Z,38.67
2018-09-28T16:57:42.484Z,41.83
2018-09-28T17:00:23.906Z,37.60
2018-09-28T17:03:08.329Z,41.50
2018-09-28T17:05:51.958Z,45.30
2018-09-28T17:08:31.768Z,48.47
2018-09-28T17:11:11.227Z,208.38
2018-09-28T17:13:52.766Z,81.50
2018-09-28T17:16:33.628Z,73.97
2018-09-28T17:19:15.513Z,40.03
2018-09-28T17:21:59.458Z,68.53
2018-09-28T17:24:42.032Z,38.97
2018-09-28T17:27:27.610Z,23.97
2018-09-28T17:30:09.007Z,21.80
2018-09-28T17:32:47.792Z,21.03
2018-09-28T17:35:27.710Z,27.27
2018-09-28T17:38:08.849Z,24.80
2018-09-28T17:40:49.510Z,23.70
2018-09-28T17:43:33.089Z,27.63
2018-09-28T17:46:12.306Z,23.87
2018-09-28T17:48:51.472Z,24.90
2018-09-28T17:51:35.414Z,26.83
2018-09-28T17:54:16.873Z,28.30
2018-09-28T17:56:55.228Z,26.20
2018-09-28T17:59:36.777Z,25.50
2018-09-28T18:02:17.253Z,26.73
2018-09-28T18:04:56.630Z,26.57
2018-09-28T18:07:39.085Z,26.20
2018-09-28T18:10:18.373Z,21.33
2018-09-28T18:13:00.802Z,19.97
2018-09-28T18:15:38.835Z,18.47
2018-09-28T18:18:17.968Z,16.40
2018-09-28T18:21:01.386Z,17.43
2018-09-28T18:23:41.291Z,24.97
2018-09-28T18:26:25.588Z,27.23
2018-09-28T18:29:06.292Z,31.67
2018-09-28T18:31:47.449Z,29.53
2018-09-28T18:34:28.147Z,26.10
2018-09-28T18:37:10.106Z,22.07
2018-09-28T18:39:54.813Z,21.53
2018-09-28T18:42:34.107Z,18.17
2018-09-28T18:45:15.406Z,24.90
2018-09-28T18:47:53.727Z,22.97
2018-09-28T18:50:36.410Z,24.00
2018-09-28T18:53:19.508Z,19.73
2018-09-28T18:56:00.506Z,20.17
2018-09-28T18:58:42.744Z,23.40
2018-09-28T19:01:23.607Z,27.57
2018-09-28T19:04:04.751Z,24.70
2018-09-28T19:06:44.357Z,21.73
2018-09-28T19:09:24.150Z,22.63
2018-09-28T19:12:03.933Z,21.37
2018-09-28T19:14:44.453Z,22.17
2018-09-28T19:17:24.328Z,22.20
2018-09-28T19:20:06.534Z,22.60
2018-09-28T19:22:47.035Z,24.40
2018-09-28T19:25:30.952Z,24.50
2018-09-28T19:28:12.307Z,24.97
2018-09-28T19:30:56.487Z,23.47
2018-09-28T19:33:37.089Z,24.67
2018-09-28T19:36:18.470Z,24.53
2018-09-28T19:38:58.344Z,24.27
2018-09-28T19:41:41.099Z,25.20
2018-09-28T19:44:24.071Z,25.17
2018-09-28T19:47:02.960Z,49.57
2018-09-28T19:49:45.170Z,38.03
2018-09-28T19:52:23.749Z,43.63
2018-09-28T19:55:02.611Z,24.23
2018-09-28T19:57:45.552Z,22.10
2018-09-28T20:00:25.850Z,29.20
2018-09-28T20:03:07.984Z,70.53
2018-09-28T20:05:47.333Z,76.57
2018-09-28T20:08:32.148Z,176.27
2018-09-28T20:11:12.930Z,255.10
2018-09-28T20:13:56.049Z,191.03
2018-09-28T20:16:36.951Z,110.00
2018-09-28T20:19:18.565Z,103.50
2018-09-28T20:22:02.450Z,88.37
2018-09-28T20:24:46.154Z,109.23
2018-09-28T20:27:27.428Z,89.90
2018-09-28T20:30:09.570Z,58.23
2018-09-28T20:32:49.923Z,46.80
2018-09-28T20:35:31.078Z,32.53
2018-09-28T20:38:12.268Z,26.20
2018-09-28T20:40:54.490Z,25.87
2018-09-28T20:43:36.732Z,27.03
2018-09-28T20:46:18.111Z,34.47
2018-09-28T20:48:58.405Z,19.50
2018-09-28T20:51:38.834Z,19.13
2018-09-28T20:54:20.967Z,19.83
2018-09-28T20:56:58.876Z,20.47
2018-09-28T20:59:39.416Z,17.23
2018-09-28T21:02:23.652Z,18.00
2018-09-28T21:05:06.364Z,25.03
2018-09-28T21:07:46.635Z,22.03
2018-09-28T21:10:25.914Z,19.27
2018-09-28T21:13:04.670Z,24.17
2018-09-28T21:15:44.271Z,21.60
2018-09-28T21:18:21.926Z,17.83
2018-09-28T21:21:01.093Z,17.33
2018-09-28T21:23:40.375Z,18.40
2018-09-28T21:26:18.773Z,19.03
2018-09-28T21:28:58.173Z,21.40
2018-09-28T21:31:37.787Z,24.00
2018-09-28T21:34:19.451Z,29.33
2018-09-28T21:37:01.314Z,30.80
2018-09-28T21:39:39.873Z,20.87
2018-09-28T21:42:19.228Z,28.13
2018-09-28T21:44:59.467Z,28.60
2018-09-28T21:47:37.991Z,20.87
2018-09-28T21:50:17.815Z,22.93
2018-09-28T21:52:57.630Z,30.23
2018-09-28T21:55:37.816Z,31.87
2018-09-28T21:58:17.067Z,18.53
2018-09-28T22:01:00.073Z,18.83
2018-09-28T22:03:40.406Z,18.67
2018-09-28T22:06:19.988Z,18.20
2018-09-28T22:08:59.214Z,20.97
2018-09-28T22:11:38.605Z,18.23
2018-09-28T22:14:18.292Z,18.70
2018-09-28T22:16:58.711Z,19.30
2018-09-28T22:19:38.492Z,18.90
2018-09-28T22:22:18.852Z,18.50
2018-09-28T22:24:57.803Z,17.97
2018-09-28T22:27:38.227Z,18.43
2018-09-28T22:30:17.689Z,18.10
2018-09-28T22:32:56.911Z,17.90
2018-09-28T22:35:36.591Z,17.93
2018-09-28T22:38:16.169Z,17.67
2018-09-28T22:40:56.750Z,18.40
2018-09-28T22:43:35.647Z,21.60
2018-09-28T22:46:12.630Z,18.97
2018-09-28T22:48:51.845Z,19.23
2018-09-28T22:51:31.795Z,20.50
2018-09-28T22:54:11.128Z,20.90
2018-09-28T22:56:50.808Z,24.43
2018-09-28T22:59:32.268Z,23.43
2018-09-28T23:02:13.224Z,32.60
2018-09-28T23:04:55.028Z,25.50
2018-09-28T23:07:34.008Z,46.67
2018-09-28T23:10:12.806Z,49.63
2018-09-28T23:12:53.244Z,50.90
2018-09-28T23:15:32.527Z,63.83
2018-09-28T23:18:11.496Z,61.43
2018-09-28T23:20:51.870Z,69.87
2018-09-28T23:23:32.672Z,101.37
2018-09-28T23:26:11.935Z,75.80
2018-09-28T23:28:50.930Z,70.70
2018-09-28T23:31:30.966Z,113.87
2018-09-28T23:34:09.088Z,57.87
2018-09-28T23:36:47.892Z,72.13
2018-09-28T23:39:27.948Z,54.43
2018-09-28T23:42:08.665Z,59.60
2018-09-28T23:44:47.288Z,51.13
2018-09-28T23:47:29.014Z,46.80
2018-09-28T23:50:08.188Z,44.73
2018-09-28T23:52:48.057Z,43.43
2018-09-28T23:55:27.390Z,44.30
2018-09-28T23:58:07.444Z,48.83
